sensor_id;sensor_type;location;lat;lon;timestamp;temperature;humidity
63931;DHT22;50111;48.114;-2.066;2022-12-29T00:02:25;10.50;99.90
63931;DHT22;50111;48.114;-2.066;2022-12-29T00:04:51;10.60;99.90
63931;DHT22;50111;48.114;-2.066;2022-12-29T00:07:17;10.70;99.90
63931;DHT22;50111;48.114;-2.066;2022-12-29T00:09:42;10.60;99.90
63931;DHT22;50111;48.114;-2.066;2022-12-29T00:12:08;10.60;99.90
63931;DHT22;50111;48.114;-2.066;2022-12-29T00:14:33;10.60;99.90
63931;DHT22;50111;48.114;-2.066;2022-12-29T00:17:17;10.60;99.90
63931;DHT22;50111;48.114;-2.066;2022-12-29T00:19:43;10.50;99.90
63931;DHT22;50111;48.114;-2.066;2022-12-29T00:22:27;10.60;99.90
63931;DHT22;50111;48.114;-2.066;2022-12-29T00:25:12;10.60;99.90
63931;DHT22;50111;48.114;-2.066;2022-12-29T00:27:56;10.70;99.90
63931;DHT22;50111;48.114;-2.066;2022-12-29T00:30:40;10.70;99.90
63931;DHT22;50111;48.114;-2.066;2022-12-29T00:33:31;10.60;99.90
63931;DHT22;50111;48.114;-2.066;2022-12-29T00:36:26;10.60;99.90
63931;DHT22;50111;48.114;-2.066;2022-12-29T00:39:04;10.70;99.90
63931;DHT22;50111;48.114;-2.066;2022-12-29T00:41:50;10.70;99.90
63931;DHT22;50111;48.114;-2.066;2022-12-29T00:44:34;10.50;99.90
63931;DHT22;50111;48.114;-2.066;2022-12-29T00:46:59;10.60;99.90
63931;DHT22;50111;48.114;-2.066;2022-12-29T00:49:28;10.50;99.90
63931;DHT22;50111;48.114;-2.066;2022-12-29T00:51:58;10.50;99.90
63931;DHT22;50111;48.114;-2.066;2022-12-29T00:54:24;10.50;99.90
63931;DHT22;50111;48.114;-2.066;2022-12-29T00:56:50;10.50;99.90
63931;DHT22;50111;48.114;-2.066;2022-12-29T00:59:16;10.50;99.90
63931;DHT22;50111;48.114;-2.066;2022-12-29T01:01:42;10.50;99.90
63931;DHT22;50111;48.114;-2.066;2022-12-29T01:04:08;10.50;99.90
63931;DHT22;50111;48.114;-2.066;2022-12-29T01:06:34;10.50;99.90
63931;DHT22;50111;48.114;-2.066;2022-12-29T01:09:00;10.40;99.90
63931;DHT22;50111;48.114;-2.066;2022-12-29T01:11:44;10.40;99.90
63931;DHT22;50111;48.114;-2.066;2022-12-29T01:14:09;10.40;99.90
63931;DHT22;50111;48.114;-2.066;2022-12-29T01:16:35;10.40;99.90
63931;DHT22;50111;48.114;-2.066;2022-12-29T01:24:18;10.40;99.90
63931;DHT22;50111;48.114;-2.066;2022-12-29T01:26:44;10.40;99.90
63931;DHT22;50111;48.114;-2.066;2022-12-29T01:29:10;10.40;99.90
63931;DHT22;50111;48.114;-2.066;2022-12-29T01:31:36;10.40;99.90
63931;DHT22;50111;48.114;-2.066;2022-12-29T01:34:01;10.40;99.90
63931;DHT22;50111;48.114;-2.066;2022-12-29T01:36:27;10.40;99.90
63931;DHT22;50111;48.114;-2.066;2022-12-29T01:38:52;10.40;99.90
63931;DHT22;50111;48.114;-2.066;2022-12-29T01:41:18;10.30;99.90
63931;DHT22;50111;48.114;-2.066;2022-12-29T01:43:54;10.30;99.90
63931;DHT22;50111;48.114;-2.066;2022-12-29T01:46:38;10.30;99.90
63931;DHT22;50111;48.114;-2.066;2022-12-29T01:51:29;10.20;99.90
63931;DHT22;50111;48.114;-2.066;2022-12-29T01:53:57;10.10;99.90
63931;DHT22;50111;48.114;-2.066;2022-12-29T01:56:24;10.00;99.90
63931;DHT22;50111;48.114;-2.066;2022-12-29T01:58:55;10.00;99.90
63931;DHT22;50111;48.114;-2.066;2022-12-29T02:01:23;9.90;99.90
63931;DHT22;50111;48.114;-2.066;2022-12-29T02:03:48;9.90;99.90
63931;DHT22;50111;48.114;-2.066;2022-12-29T02:06:17;9.90;99.90
63931;DHT22;50111;48.114;-2.066;2022-12-29T02:08:44;9.90;99.90
63931;DHT22;50111;48.114;-2.066;2022-12-29T02:11:11;9.90;99.90
63931;DHT22;50111;48.114;-2.066;2022-12-29T02:13:37;10.00;99.90
63931;DHT22;50111;48.114;-2.066;2022-12-29T02:18:51;9.90;99.90
63931;DHT22;50111;48.114;-2.066;2022-12-29T02:29:29;10.10;99.90
63931;DHT22;50111;48.114;-2.066;2022-12-29T02:32:01;10.10;99.90
63931;DHT22;50111;48.114;-2.066;2022-12-29T02:37:05;10.10;99.90
63931;DHT22;50111;48.114;-2.066;2022-12-29T02:42:35;10.10;99.90
63931;DHT22;50111;48.114;-2.066;2022-12-29T02:45:05;10.10;99.90
63931;DHT22;50111;48.114;-2.066;2022-12-29T02:47:41;10.10;99.90
63931;DHT22;50111;48.114;-2.066;2022-12-29T02:52:37;10.10;99.90
63931;DHT22;50111;48.114;-2.066;2022-12-29T02:55:04;10.10;99.90
63931;DHT22;50111;48.114;-2.066;2022-12-29T02:57:33;10.10;99.90
63931;DHT22;50111;48.114;-2.066;2022-12-29T03:00:09;10.10;99.90
63931;DHT22;50111;48.114;-2.066;2022-12-29T03:05:18;10.00;99.90
63931;DHT22;50111;48.114;-2.066;2022-12-29T03:07:50;10.10;99.90
63931;DHT22;50111;48.114;-2.066;2022-12-29T03:10:21;10.00;99.90
63931;DHT22;50111;48.114;-2.066;2022-12-29T03:15:51;10.10;99.90
63931;DHT22;50111;48.114;-2.066;2022-12-29T03:21:11;10.00;99.90
63931;DHT22;50111;48.114;-2.066;2022-12-29T03:23:37;10.00;99.90
63931;DHT22;50111;48.114;-2.066;2022-12-29T03:26:05;9.90;99.90
63931;DHT22;50111;48.114;-2.066;2022-12-29T03:28:33;9.90;99.90
63931;DHT22;50111;48.114;-2.066;2022-12-29T03:31:01;10.00;99.90
63931;DHT22;50111;48.114;-2.066;2022-12-29T03:33:28;9.90;99.90
63931;DHT22;50111;48.114;-2.066;2022-12-29T03:35:56;9.90;99.90
63931;DHT22;50111;48.114;-2.066;2022-12-29T03:38:25;9.90;99.90
63931;DHT22;50111;48.114;-2.066;2022-12-29T03:40:54;9.80;99.90
63931;DHT22;50111;48.114;-2.066;2022-12-29T03:43:21;9.80;99.90
63931;DHT22;50111;48.114;-2.066;2022-12-29T03:45:46;9.80;99.90
63931;DHT22;50111;48.114;-2.066;2022-12-29T03:48:12;9.80;99.90
63931;DHT22;50111;48.114;-2.066;2022-12-29T03:50:37;9.70;99.90
63931;DHT22;50111;48.114;-2.066;2022-12-29T03:53:03;9.60;99.90
63931;DHT22;50111;48.114;-2.066;2022-12-29T03:55:28;9.50;99.90
63931;DHT22;50111;48.114;-2.066;2022-12-29T03:57:54;9.50;99.90
63931;DHT22;50111;48.114;-2.066;2022-12-29T04:00:19;9.50;99.90
63931;DHT22;50111;48.114;-2.066;2022-12-29T04:02:45;9.60;99.90
63931;DHT22;50111;48.114;-2.066;2022-12-29T04:05:10;9.70;99.90
63931;DHT22;50111;48.114;-2.066;2022-12-29T04:07:36;9.80;99.90
63931;DHT22;50111;48.114;-2.066;2022-12-29T04:10:01;9.70;99.90
63931;DHT22;50111;48.114;-2.066;2022-12-29T04:12:27;9.70;99.90
63931;DHT22;50111;48.114;-2.066;2022-12-29T04:14:52;9.80;99.90
63931;DHT22;50111;48.114;-2.066;2022-12-29T04:17:18;9.90;99.90
63931;DHT22;50111;48.114;-2.066;2022-12-29T04:19:44;9.90;99.90
63931;DHT22;50111;48.114;-2.066;2022-12-29T04:22:09;9.80;99.90
63931;DHT22;50111;48.114;-2.066;2022-12-29T04:24:36;9.80;99.90
63931;DHT22;50111;48.114;-2.066;2022-12-29T04:27:02;9.70;99.90
63931;DHT22;50111;48.114;-2.066;2022-12-29T04:29:28;9.60;99.90
63931;DHT22;50111;48.114;-2.066;2022-12-29T04:31:53;9.60;99.90
63931;DHT22;50111;48.114;-2.066;2022-12-29T04:34:19;9.50;99.90
63931;DHT22;50111;48.114;-2.066;2022-12-29T04:36:44;9.40;99.90
63931;DHT22;50111;48.114;-2.066;2022-12-29T04:39:10;9.40;99.90
63931;DHT22;50111;48.114;-2.066;2022-12-29T04:41:35;9.30;99.90
63931;DHT22;50111;48.114;-2.066;2022-12-29T04:44:01;9.30;99.90
63931;DHT22;50111;48.114;-2.066;2022-12-29T04:46:26;9.40;99.90
63931;DHT22;50111;48.114;-2.066;2022-12-29T04:48:52;9.40;99.90
63931;DHT22;50111;48.114;-2.066;2022-12-29T04:51:17;9.50;99.90
63931;DHT22;50111;48.114;-2.066;2022-12-29T04:53:43;9.50;99.90
63931;DHT22;50111;48.114;-2.066;2022-12-29T04:56:08;9.50;99.90
63931;DHT22;50111;48.114;-2.066;2022-12-29T04:58:34;9.30;99.90
63931;DHT22;50111;48.114;-2.066;2022-12-29T05:01:00;9.20;99.90
63931;DHT22;50111;48.114;-2.066;2022-12-29T05:03:25;9.10;99.90
63931;DHT22;50111;48.114;-2.066;2022-12-29T05:05:54;9.20;99.90
63931;DHT22;50111;48.114;-2.066;2022-12-29T05:08:20;9.20;99.90
63931;DHT22;50111;48.114;-2.066;2022-12-29T05:10:45;9.20;99.90
63931;DHT22;50111;48.114;-2.066;2022-12-29T05:13:11;9.00;99.90
63931;DHT22;50111;48.114;-2.066;2022-12-29T05:15:37;9.00;99.90
63931;DHT22;50111;48.114;-2.066;2022-12-29T05:18:02;8.80;99.90
63931;DHT22;50111;48.114;-2.066;2022-12-29T05:20:28;8.80;99.90
63931;DHT22;50111;48.114;-2.066;2022-12-29T05:22:53;8.70;99.90
63931;DHT22;50111;48.114;-2.066;2022-12-29T05:25:19;8.50;99.90
63931;DHT22;50111;48.114;-2.066;2022-12-29T05:27:44;8.40;99.90
63931;DHT22;50111;48.114;-2.066;2022-12-29T05:30:10;8.50;99.90
63931;DHT22;50111;48.114;-2.066;2022-12-29T05:32:35;8.40;99.90
63931;DHT22;50111;48.114;-2.066;2022-12-29T05:35:01;8.60;99.90
63931;DHT22;50111;48.114;-2.066;2022-12-29T05:37:26;8.70;99.90
63931;DHT22;50111;48.114;-2.066;2022-12-29T05:39:52;8.60;99.90
63931;DHT22;50111;48.114;-2.066;2022-12-29T05:42:17;8.50;99.90
63931;DHT22;50111;48.114;-2.066;2022-12-29T05:44:43;8.40;99.90
63931;DHT22;50111;48.114;-2.066;2022-12-29T05:47:08;8.40;99.90
63931;DHT22;50111;48.114;-2.066;2022-12-29T05:49:34;8.40;99.90
63931;DHT22;50111;48.114;-2.066;2022-12-29T05:52:00;8.40;99.90
63931;DHT22;50111;48.114;-2.066;2022-12-29T05:54:25;8.50;99.90
63931;DHT22;50111;48.114;-2.066;2022-12-29T05:56:51;8.40;99.90
63931;DHT22;50111;48.114;-2.066;2022-12-29T05:59:16;8.40;99.90
63931;DHT22;50111;48.114;-2.066;2022-12-29T06:01:42;8.50;99.90
63931;DHT22;50111;48.114;-2.066;2022-12-29T06:04:07;8.50;99.90
63931;DHT22;50111;48.114;-2.066;2022-12-29T06:06:33;8.30;99.90
63931;DHT22;50111;48.114;-2.066;2022-12-29T06:08:58;8.30;99.90
63931;DHT22;50111;48.114;-2.066;2022-12-29T06:11:24;8.40;99.90
63931;DHT22;50111;48.114;-2.066;2022-12-29T06:13:49;8.30;99.90
63931;DHT22;50111;48.114;-2.066;2022-12-29T06:16:15;8.20;99.90
63931;DHT22;50111;48.114;-2.066;2022-12-29T06:18:40;8.20;99.90
63931;DHT22;50111;48.114;-2.066;2022-12-29T06:21:06;8.30;99.90
63931;DHT22;50111;48.114;-2.066;2022-12-29T06:23:32;8.20;99.90
63931;DHT22;50111;48.114;-2.066;2022-12-29T06:25:57;8.20;99.90
63931;DHT22;50111;48.114;-2.066;2022-12-29T06:28:23;8.30;99.90
63931;DHT22;50111;48.114;-2.066;2022-12-29T06:30:49;8.30;99.90
63931;DHT22;50111;48.114;-2.066;2022-12-29T06:33:14;8.50;99.90
63931;DHT22;50111;48.114;-2.066;2022-12-29T06:35:41;8.80;99.90
63931;DHT22;50111;48.114;-2.066;2022-12-29T06:38:06;8.70;99.90
63931;DHT22;50111;48.114;-2.066;2022-12-29T06:40:32;8.90;99.90
63931;DHT22;50111;48.114;-2.066;2022-12-29T06:42:57;9.10;99.90
63931;DHT22;50111;48.114;-2.066;2022-12-29T06:45:23;9.10;99.90
63931;DHT22;50111;48.114;-2.066;2022-12-29T06:47:48;9.10;99.90
63931;DHT22;50111;48.114;-2.066;2022-12-29T06:50:14;9.10;99.90
63931;DHT22;50111;48.114;-2.066;2022-12-29T06:52:39;9.00;99.90
63931;DHT22;50111;48.114;-2.066;2022-12-29T06:55:05;9.10;99.90
63931;DHT22;50111;48.114;-2.066;2022-12-29T06:57:31;9.10;99.90
63931;DHT22;50111;48.114;-2.066;2022-12-29T06:59:56;9.10;99.90
63931;DHT22;50111;48.114;-2.066;2022-12-29T07:02:22;9.10;99.90
63931;DHT22;50111;48.114;-2.066;2022-12-29T07:04:50;8.90;99.90
63931;DHT22;50111;48.114;-2.066;2022-12-29T07:07:17;8.70;99.90
63931;DHT22;50111;48.114;-2.066;2022-12-29T07:09:43;8.60;99.90
63931;DHT22;50111;48.114;-2.066;2022-12-29T07:12:08;8.50;99.90
63931;DHT22;50111;48.114;-2.066;2022-12-29T07:14:34;8.30;99.90
63931;DHT22;50111;48.114;-2.066;2022-12-29T07:17:00;8.30;99.90
63931;DHT22;50111;48.114;-2.066;2022-12-29T07:19:26;8.30;99.90
63931;DHT22;50111;48.114;-2.066;2022-12-29T07:21:53;8.20;99.90
63931;DHT22;50111;48.114;-2.066;2022-12-29T07:24:19;8.20;99.90
63931;DHT22;50111;48.114;-2.066;2022-12-29T07:26:45;8.20;99.90
63931;DHT22;50111;48.114;-2.066;2022-12-29T07:29:10;8.20;99.90
63931;DHT22;50111;48.114;-2.066;2022-12-29T07:31:36;8.20;99.90
63931;DHT22;50111;48.114;-2.066;2022-12-29T07:34:01;8.20;99.90
63931;DHT22;50111;48.114;-2.066;2022-12-29T07:36:26;8.20;99.90
63931;DHT22;50111;48.114;-2.066;2022-12-29T07:38:52;8.20;99.90
63931;DHT22;50111;48.114;-2.066;2022-12-29T07:41:18;8.20;99.90
63931;DHT22;50111;48.114;-2.066;2022-12-29T07:43:46;8.20;99.90
63931;DHT22;50111;48.114;-2.066;2022-12-29T07:46:12;8.10;99.90
63931;DHT22;50111;48.114;-2.066;2022-12-29T07:48:37;8.20;99.90
63931;DHT22;50111;48.114;-2.066;2022-12-29T07:51:03;8.20;99.90
63931;DHT22;50111;48.114;-2.066;2022-12-29T07:53:28;8.10;99.90
63931;DHT22;50111;48.114;-2.066;2022-12-29T07:55:54;8.20;99.90
63931;DHT22;50111;48.114;-2.066;2022-12-29T07:58:19;8.20;99.90
63931;DHT22;50111;48.114;-2.066;2022-12-29T08:00:45;8.20;99.90
63931;DHT22;50111;48.114;-2.066;2022-12-29T08:03:10;8.20;99.90
63931;DHT22;50111;48.114;-2.066;2022-12-29T08:05:36;8.20;99.90
63931;DHT22;50111;48.114;-2.066;2022-12-29T08:08:01;8.20;99.90
63931;DHT22;50111;48.114;-2.066;2022-12-29T08:10:27;8.30;99.90
63931;DHT22;50111;48.114;-2.066;2022-12-29T08:12:52;8.20;99.90
63931;DHT22;50111;48.114;-2.066;2022-12-29T08:15:18;8.20;99.90
63931;DHT22;50111;48.114;-2.066;2022-12-29T08:17:43;8.20;99.90
63931;DHT22;50111;48.114;-2.066;2022-12-29T08:20:09;8.20;99.90
63931;DHT22;50111;48.114;-2.066;2022-12-29T08:22:34;8.20;99.90
63931;DHT22;50111;48.114;-2.066;2022-12-29T08:25:00;8.30;99.90
63931;DHT22;50111;48.114;-2.066;2022-12-29T08:27:25;8.60;99.90
63931;DHT22;50111;48.114;-2.066;2022-12-29T08:29:51;8.80;99.90
63931;DHT22;50111;48.114;-2.066;2022-12-29T08:32:17;8.90;99.90
63931;DHT22;50111;48.114;-2.066;2022-12-29T08:34:42;8.90;99.90
63931;DHT22;50111;48.114;-2.066;2022-12-29T08:37:08;8.70;99.90
63931;DHT22;50111;48.114;-2.066;2022-12-29T08:39:33;8.70;99.90
63931;DHT22;50111;48.114;-2.066;2022-12-29T08:41:59;8.50;99.90
63931;DHT22;50111;48.114;-2.066;2022-12-29T08:44:25;8.50;99.90
63931;DHT22;50111;48.114;-2.066;2022-12-29T08:46:50;8.60;99.90
63931;DHT22;50111;48.114;-2.066;2022-12-29T08:49:16;8.60;99.90
63931;DHT22;50111;48.114;-2.066;2022-12-29T08:51:41;8.60;99.90
63931;DHT22;50111;48.114;-2.066;2022-12-29T08:54:07;8.70;99.90
63931;DHT22;50111;48.114;-2.066;2022-12-29T08:56:32;8.90;99.90
63931;DHT22;50111;48.114;-2.066;2022-12-29T08:58:58;8.90;99.90
63931;DHT22;50111;48.114;-2.066;2022-12-29T09:01:23;9.00;99.90
63931;DHT22;50111;48.114;-2.066;2022-12-29T09:03:49;8.90;99.90
63931;DHT22;50111;48.114;-2.066;2022-12-29T09:06:15;9.00;99.90
63931;DHT22;50111;48.114;-2.066;2022-12-29T09:08:41;9.20;99.90
63931;DHT22;50111;48.114;-2.066;2022-12-29T09:11:08;9.30;99.90
63931;DHT22;50111;48.114;-2.066;2022-12-29T09:13:34;9.30;99.90
63931;DHT22;50111;48.114;-2.066;2022-12-29T09:16:00;9.30;99.90
63931;DHT22;50111;48.114;-2.066;2022-12-29T09:18:25;9.40;99.90
63931;DHT22;50111;48.114;-2.066;2022-12-29T09:20:58;9.60;99.90
63931;DHT22;50111;48.114;-2.066;2022-12-29T09:23:23;9.60;99.90
63931;DHT22;50111;48.114;-2.066;2022-12-29T09:25:49;9.80;99.90
63931;DHT22;50111;48.114;-2.066;2022-12-29T09:28:14;10.00;99.90
63931;DHT22;50111;48.114;-2.066;2022-12-29T09:30:41;10.20;99.90
63931;DHT22;50111;48.114;-2.066;2022-12-29T09:33:06;10.40;99.90
63931;DHT22;50111;48.114;-2.066;2022-12-29T09:35:32;10.50;99.90
63931;DHT22;50111;48.114;-2.066;2022-12-29T09:37:58;11.20;99.90
63931;DHT22;50111;48.114;-2.066;2022-12-29T09:40:27;12.80;99.90
63931;DHT22;50111;48.114;-2.066;2022-12-29T09:42:59;13.50;99.90
63931;DHT22;50111;48.114;-2.066;2022-12-29T09:45:29;14.20;99.90
63931;DHT22;50111;48.114;-2.066;2022-12-29T09:47:56;14.30;99.90
63931;DHT22;50111;48.114;-2.066;2022-12-29T09:50:32;14.70;99.90
63931;DHT22;50111;48.114;-2.066;2022-12-29T09:53:03;15.80;99.90
63931;DHT22;50111;48.114;-2.066;2022-12-29T09:55:48;16.40;99.90
63931;DHT22;50111;48.114;-2.066;2022-12-29T10:00:58;18.20;99.90
63931;DHT22;50111;48.114;-2.066;2022-12-29T10:03:26;18.80;99.90
63931;DHT22;50111;48.114;-2.066;2022-12-29T10:05:58;18.70;99.90
63931;DHT22;50111;48.114;-2.066;2022-12-29T10:11:03;19.20;99.90
63931;DHT22;50111;48.114;-2.066;2022-12-29T10:13:35;19.10;99.90
63931;DHT22;50111;48.114;-2.066;2022-12-29T10:23:55;19.10;99.90
63931;DHT22;50111;48.114;-2.066;2022-12-29T10:26:27;19.60;99.90
63931;DHT22;50111;48.114;-2.066;2022-12-29T10:28:56;19.90;99.90
63931;DHT22;50111;48.114;-2.066;2022-12-29T10:31:24;19.80;99.40
63931;DHT22;50111;48.114;-2.066;2022-12-29T10:33:57;20.20;99.20
63931;DHT22;50111;48.114;-2.066;2022-12-29T10:36:27;20.50;98.40
63931;DHT22;50111;48.114;-2.066;2022-12-29T10:39:05;20.50;98.10
63931;DHT22;50111;48.114;-2.066;2022-12-29T10:42:07;20.60;97.20
63931;DHT22;50111;48.114;-2.066;2022-12-29T10:44:22;20.50;97.10
63931;DHT22;50111;48.114;-2.066;2022-12-29T10:46:55;20.10;97.10
63931;DHT22;50111;48.114;-2.066;2022-12-29T10:49:20;20.30;96.60
63931;DHT22;50111;48.114;-2.066;2022-12-29T10:51:47;20.50;96.00
63931;DHT22;50111;48.114;-2.066;2022-12-29T10:57:22;20.50;96.00
63931;DHT22;50111;48.114;-2.066;2022-12-29T10:59:49;19.90;95.90
63931;DHT22;50111;48.114;-2.066;2022-12-29T11:07:24;20.20;96.00
63931;DHT22;50111;48.114;-2.066;2022-12-29T11:09:51;20.80;95.70
63931;DHT22;50111;48.114;-2.066;2022-12-29T11:12:29;21.10;94.70
63931;DHT22;50111;48.114;-2.066;2022-12-29T11:17:47;19.30;95.40
63931;DHT22;50111;48.114;-2.066;2022-12-29T11:20:35;17.40;97.90
63931;DHT22;50111;48.114;-2.066;2022-12-29T11:22:59;16.00;99.90
63931;DHT22;50111;48.114;-2.066;2022-12-29T11:25:25;17.10;99.90
63931;DHT22;50111;48.114;-2.066;2022-12-29T11:27:58;16.20;99.90
63931;DHT22;50111;48.114;-2.066;2022-12-29T11:30:25;14.60;99.90
63931;DHT22;50111;48.114;-2.066;2022-12-29T11:32:52;13.80;99.90
63931;DHT22;50111;48.114;-2.066;2022-12-29T11:35:29;13.50;99.90
63931;DHT22;50111;48.114;-2.066;2022-12-29T11:37:57;13.30;99.90
63931;DHT22;50111;48.114;-2.066;2022-12-29T11:40:23;13.10;99.90
63931;DHT22;50111;48.114;-2.066;2022-12-29T11:42:53;13.00;99.90
63931;DHT22;50111;48.114;-2.066;2022-12-29T11:45:20;12.90;99.90
63931;DHT22;50111;48.114;-2.066;2022-12-29T11:47:47;12.90;99.90
63931;DHT22;50111;48.114;-2.066;2022-12-29T11:50:18;12.80;99.90
63931;DHT22;50111;48.114;-2.066;2022-12-29T11:52:44;12.80;99.90
63931;DHT22;50111;48.114;-2.066;2022-12-29T11:55:23;12.80;99.90
63931;DHT22;50111;48.114;-2.066;2022-12-29T11:57:50;12.90;99.90
63931;DHT22;50111;48.114;-2.066;2022-12-29T12:00:18;12.90;99.90
63931;DHT22;50111;48.114;-2.066;2022-12-29T12:05:21;12.90;99.90
63931;DHT22;50111;48.114;-2.066;2022-12-29T12:07:50;12.90;99.90
63931;DHT22;50111;48.114;-2.066;2022-12-29T12:10:19;12.90;99.90
63931;DHT22;50111;48.114;-2.066;2022-12-29T12:12:48;12.90;99.90
63931;DHT22;50111;48.114;-2.066;2022-12-29T12:15:17;12.80;99.90
63931;DHT22;50111;48.114;-2.066;2022-12-29T12:17:59;12.80;99.90
63931;DHT22;50111;48.114;-2.066;2022-12-29T12:20:33;12.90;99.90
63931;DHT22;50111;48.114;-2.066;2022-12-29T12:26:32;13.20;99.90
63931;DHT22;50111;48.114;-2.066;2022-12-29T12:31:27;13.50;99.90
63931;DHT22;50111;48.114;-2.066;2022-12-29T12:33:58;13.80;99.90
63931;DHT22;50111;48.114;-2.066;2022-12-29T12:36:34;14.10;99.90
63931;DHT22;50111;48.114;-2.066;2022-12-29T12:39:07;13.90;99.90
63931;DHT22;50111;48.114;-2.066;2022-12-29T12:41:48;13.50;99.90
63931;DHT22;50111;48.114;-2.066;2022-12-29T12:49:36;12.80;99.90
63931;DHT22;50111;48.114;-2.066;2022-12-29T13:17:46;11.90;99.90
63931;DHT22;50111;48.114;-2.066;2022-12-29T13:20:24;12.10;99.90
63931;DHT22;50111;48.114;-2.066;2022-12-29T13:23:04;12.10;99.90
63931;DHT22;50111;48.114;-2.066;2022-12-29T13:25:34;12.10;99.90
63931;DHT22;50111;48.114;-2.066;2022-12-29T13:30:36;12.10;99.90
63931;DHT22;50111;48.114;-2.066;2022-12-29T13:33:14;12.10;99.90
63931;DHT22;50111;48.114;-2.066;2022-12-29T13:40:38;12.00;99.90
63931;DHT22;50111;48.114;-2.066;2022-12-29T13:43:05;12.10;99.90
63931;DHT22;50111;48.114;-2.066;2022-12-29T13:45:31;12.00;99.90
63931;DHT22;50111;48.114;-2.066;2022-12-29T13:48:01;12.10;99.90
63931;DHT22;50111;48.114;-2.066;2022-12-29T13:50:29;12.10;99.90
63931;DHT22;50111;48.114;-2.066;2022-12-29T13:53:01;12.20;99.90
63931;DHT22;50111;48.114;-2.066;2022-12-29T13:58:07;12.80;99.90
63931;DHT22;50111;48.114;-2.066;2022-12-29T14:00:46;13.20;99.90
63931;DHT22;50111;48.114;-2.066;2022-12-29T14:06:12;13.50;99.90
63931;DHT22;50111;48.114;-2.066;2022-12-29T14:08:39;13.40;99.90
63931;DHT22;50111;48.114;-2.066;2022-12-29T14:11:11;13.20;99.90
63931;DHT22;50111;48.114;-2.066;2022-12-29T14:13:40;13.10;99.90
63931;DHT22;50111;48.114;-2.066;2022-12-29T14:16:06;12.90;99.90
63931;DHT22;50111;48.114;-2.066;2022-12-29T14:18:33;12.50;99.90
63931;DHT22;50111;48.114;-2.066;2022-12-29T14:21:00;12.20;99.90
63931;DHT22;50111;48.114;-2.066;2022-12-29T14:25:54;11.90;99.90
63931;DHT22;50111;48.114;-2.066;2022-12-29T14:29:03;11.80;99.90
63931;DHT22;50111;48.114;-2.066;2022-12-29T14:34:14;11.40;99.90
63931;DHT22;50111;48.114;-2.066;2022-12-29T14:36:34;11.30;99.90
63931;DHT22;50111;48.114;-2.066;2022-12-29T14:39:00;11.20;99.90
63931;DHT22;50111;48.114;-2.066;2022-12-29T14:41:27;11.30;99.90
63931;DHT22;50111;48.114;-2.066;2022-12-29T14:43:59;11.20;99.90
63931;DHT22;50111;48.114;-2.066;2022-12-29T14:46:40;11.10;99.90
63931;DHT22;50111;48.114;-2.066;2022-12-29T14:49:08;10.90;99.90
63931;DHT22;50111;48.114;-2.066;2022-12-29T14:51:39;10.80;99.90
63931;DHT22;50111;48.114;-2.066;2022-12-29T14:56:48;10.90;99.90
63931;DHT22;50111;48.114;-2.066;2022-12-29T14:59:14;11.10;99.90
63931;DHT22;50111;48.114;-2.066;2022-12-29T15:01:43;11.10;99.90
63931;DHT22;50111;48.114;-2.066;2022-12-29T15:04:27;11.00;99.90
63931;DHT22;50111;48.114;-2.066;2022-12-29T15:06:55;11.00;99.90
63931;DHT22;50111;48.114;-2.066;2022-12-29T15:11:53;10.90;99.90
63931;DHT22;50111;48.114;-2.066;2022-12-29T15:14:30;10.80;99.90
63931;DHT22;50111;48.114;-2.066;2022-12-29T15:16:55;10.70;99.90
63931;DHT22;50111;48.114;-2.066;2022-12-29T15:19:21;10.50;99.90
63931;DHT22;50111;48.114;-2.066;2022-12-29T15:21:47;10.40;99.90
63931;DHT22;50111;48.114;-2.066;2022-12-29T15:24:12;10.30;99.90
63931;DHT22;50111;48.114;-2.066;2022-12-29T15:26:40;10.20;99.90
63931;DHT22;50111;48.114;-2.066;2022-12-29T15:31:50;10.20;99.90
63931;DHT22;50111;48.114;-2.066;2022-12-29T15:34:16;10.10;99.90
63931;DHT22;50111;48.114;-2.066;2022-12-29T15:36:45;10.10;99.90
63931;DHT22;50111;48.114;-2.066;2022-12-29T15:39:26;10.00;99.90
63931;DHT22;50111;48.114;-2.066;2022-12-29T15:41:56;9.90;99.90
63931;DHT22;50111;48.114;-2.066;2022-12-29T15:44:43;9.80;99.90
63931;DHT22;50111;48.114;-2.066;2022-12-29T15:47:15;9.70;99.90
63931;DHT22;50111;48.114;-2.066;2022-12-29T15:49:42;9.70;99.90
63931;DHT22;50111;48.114;-2.066;2022-12-29T15:52:08;9.70;99.90
63931;DHT22;50111;48.114;-2.066;2022-12-29T15:54:34;9.70;99.90
63931;DHT22;50111;48.114;-2.066;2022-12-29T15:57:01;9.50;99.90
63931;DHT22;50111;48.114;-2.066;2022-12-29T15:59:33;9.30;99.90
63931;DHT22;50111;48.114;-2.066;2022-12-29T16:01:59;9.10;99.90
63931;DHT22;50111;48.114;-2.066;2022-12-29T16:04:26;9.00;99.90
63931;DHT22;50111;48.114;-2.066;2022-12-29T16:06:55;8.90;99.90
63931;DHT22;50111;48.114;-2.066;2022-12-29T16:09:33;8.90;99.90
63931;DHT22;50111;48.114;-2.066;2022-12-29T16:12:01;8.90;99.90
63931;DHT22;50111;48.114;-2.066;2022-12-29T16:17:01;8.70;99.90
63931;DHT22;50111;48.114;-2.066;2022-12-29T16:19:34;8.70;99.90
63931;DHT22;50111;48.114;-2.066;2022-12-29T16:22:01;8.60;99.90
63931;DHT22;50111;48.114;-2.066;2022-12-29T16:24:29;8.50;99.90
63931;DHT22;50111;48.114;-2.066;2022-12-29T16:27:06;8.40;99.90
63931;DHT22;50111;48.114;-2.066;2022-12-29T16:29:32;8.20;99.90
63931;DHT22;50111;48.114;-2.066;2022-12-29T16:31:58;8.10;99.90
63931;DHT22;50111;48.114;-2.066;2022-12-29T16:34:41;8.10;99.90
63931;DHT22;50111;48.114;-2.066;2022-12-29T16:39:52;8.00;99.90
63931;DHT22;50111;48.114;-2.066;2022-12-29T16:46:03;8.00;99.90
63931;DHT22;50111;48.114;-2.066;2022-12-29T16:47:48;7.90;99.90
63931;DHT22;50111;48.114;-2.066;2022-12-29T16:50:25;7.90;99.90
63931;DHT22;50111;48.114;-2.066;2022-12-29T16:52:51;7.70;99.90
63931;DHT22;50111;48.114;-2.066;2022-12-29T16:55:17;7.70;99.90
63931;DHT22;50111;48.114;-2.066;2022-12-29T16:57:44;7.60;99.90
63931;DHT22;50111;48.114;-2.066;2022-12-29T17:00:33;7.40;99.90
63931;DHT22;50111;48.114;-2.066;2022-12-29T17:02:57;7.20;99.90
63931;DHT22;50111;48.114;-2.066;2022-12-29T17:05:23;7.10;99.90
63931;DHT22;50111;48.114;-2.066;2022-12-29T17:07:50;7.10;99.90
63931;DHT22;50111;48.114;-2.066;2022-12-29T17:10:16;7.00;99.90
63931;DHT22;50111;48.114;-2.066;2022-12-29T17:12:43;6.90;99.90
63931;DHT22;50111;48.114;-2.066;2022-12-29T17:17:43;6.80;99.90
63931;DHT22;50111;48.114;-2.066;2022-12-29T17:22:47;6.90;99.90
63931;DHT22;50111;48.114;-2.066;2022-12-29T17:25:14;6.90;99.90
63931;DHT22;50111;48.114;-2.066;2022-12-29T17:27:50;6.80;99.90
63931;DHT22;50111;48.114;-2.066;2022-12-29T17:30:17;6.60;99.90
63931;DHT22;50111;48.114;-2.066;2022-12-29T17:32:48;6.60;99.90
63931;DHT22;50111;48.114;-2.066;2022-12-29T17:35:15;6.70;99.90
63931;DHT22;50111;48.114;-2.066;2022-12-29T17:37:41;6.60;99.90
63931;DHT22;50111;48.114;-2.066;2022-12-29T17:40:09;6.50;99.90
63931;DHT22;50111;48.114;-2.066;2022-12-29T17:42:37;6.60;99.90
63931;DHT22;50111;48.114;-2.066;2022-12-29T17:45:04;6.60;99.90
63931;DHT22;50111;48.114;-2.066;2022-12-29T17:47:30;6.50;99.90
63931;DHT22;50111;48.114;-2.066;2022-12-29T17:49:55;6.50;99.90
63931;DHT22;50111;48.114;-2.066;2022-12-29T17:52:21;6.70;99.90